CVJ weather

General Mariano Matamoros Airport
Moreloa, Mexico

Public forecast

Using degrees Celsius for public forecast. Weather courtesy of forecast.io.

Current aviation weather report (METAR) for General Mariano Matamoros Airport

Report is more than 2 hours old.

Retrieved 2019/10/15 23:45 UTC (5 hours ago):

MMCB 152345Z 00000KT 12SM FEW090 SCT200 25/17 A2997 RMK 8/038

Aviation forecast (TAF) for General Mariano Matamoros Airport

Forecast is more than 6 hours old.

Retrieved 2019/10/15 18:12 UTC (10 hours ago):

TAF MMCB 151710Z 1518/1618 17008KT P6SM SCT020 SCT090 BKN220 FM152100 14012KT P6SM SCT020CB BKN090 TEMPO 1522/1602 VC RA FM160300 32005KT P6SM SCT090 BKN220 BECMG 1605/1606 00000KT FM161200 00000KT 6SM HZ SCT090 SCT220